sensor_id;sensor_type;location;lat;lon;timestamp;P1;durP1;ratioP1;P2;durP2;ratioP2
4148;SDS011;2088;51.032;7.082;2023-02-23T00:00:08;37.23;;;21.33;;
4148;SDS011;2088;51.032;7.082;2023-02-23T00:02:45;46.43;;;23.17;;
4148;SDS011;2088;51.032;7.082;2023-02-23T00:05:12;39.27;;;20.30;;
4148;SDS011;2088;51.032;7.082;2023-02-23T00:07:40;40.57;;;21.70;;
4148;SDS011;2088;51.032;7.082;2023-02-23T00:10:10;38.70;;;20.53;;
4148;SDS011;2088;51.032;7.082;2023-02-23T00:12:38;33.50;;;19.97;;
4148;SDS011;2088;51.032;7.082;2023-02-23T00:15:05;46.80;;;23.63;;
4148;SDS011;2088;51.032;7.082;2023-02-23T00:17:32;39.60;;;22.20;;
4148;SDS011;2088;51.032;7.082;2023-02-23T00:20:01;53.87;;;25.70;;
4148;SDS011;2088;51.032;7.082;2023-02-23T00:22:31;44.20;;;23.80;;
4148;SDS011;2088;51.032;7.082;2023-02-23T00:24:59;46.80;;;23.77;;
4148;SDS011;2088;51.032;7.082;2023-02-23T00:27:27;45.20;;;23.30;;
4148;SDS011;2088;51.032;7.082;2023-02-23T00:29:54;43.20;;;22.60;;
4148;SDS011;2088;51.032;7.082;2023-02-23T00:32:21;44.47;;;22.73;;
4148;SDS011;2088;51.032;7.082;2023-02-23T00:34:48;44.70;;;22.77;;
4148;SDS011;2088;51.032;7.082;2023-02-23T00:37:16;42.07;;;23.37;;
4148;SDS011;2088;51.032;7.082;2023-02-23T00:39:44;44.80;;;22.30;;
4148;SDS011;2088;51.032;7.082;2023-02-23T00:42:11;47.53;;;25.13;;
4148;SDS011;2088;51.032;7.082;2023-02-23T00:44:39;38.93;;;20.43;;
4148;SDS011;2088;51.032;7.082;2023-02-23T00:47:07;42.37;;;22.60;;
4148;SDS011;2088;51.032;7.082;2023-02-23T00:49:34;44.20;;;24.20;;
4148;SDS011;2088;51.032;7.082;2023-02-23T00:52:01;45.37;;;22.63;;
4148;SDS011;2088;51.032;7.082;2023-02-23T00:54:29;54.73;;;24.97;;
4148;SDS011;2088;51.032;7.082;2023-02-23T00:56:56;42.43;;;21.37;;
4148;SDS011;2088;51.032;7.082;2023-02-23T00:59:23;43.03;;;24.03;;
4148;SDS011;2088;51.032;7.082;2023-02-23T01:01:52;52.20;;;24.50;;
4148;SDS011;2088;51.032;7.082;2023-02-23T01:04:20;39.97;;;22.77;;
4148;SDS011;2088;51.032;7.082;2023-02-23T01:06:48;47.97;;;21.90;;
4148;SDS011;2088;51.032;7.082;2023-02-23T01:09:15;46.47;;;23.00;;
4148;SDS011;2088;51.032;7.082;2023-02-23T01:11:51;45.47;;;25.03;;
4148;SDS011;2088;51.032;7.082;2023-02-23T01:14:20;46.90;;;23.97;;
4148;SDS011;2088;51.032;7.082;2023-02-23T01:16:47;51.10;;;26.57;;
4148;SDS011;2088;51.032;7.082;2023-02-23T01:19:16;47.83;;;23.20;;
4148;SDS011;2088;51.032;7.082;2023-02-23T01:21:43;44.53;;;22.97;;
4148;SDS011;2088;51.032;7.082;2023-02-23T01:24:10;47.30;;;23.90;;
4148;SDS011;2088;51.032;7.082;2023-02-23T01:26:38;51.67;;;24.83;;
4148;SDS011;2088;51.032;7.082;2023-02-23T01:29:07;39.50;;;23.00;;
4148;SDS011;2088;51.032;7.082;2023-02-23T01:31:34;44.10;;;24.10;;
4148;SDS011;2088;51.032;7.082;2023-02-23T01:34:02;44.60;;;23.80;;
4148;SDS011;2088;51.032;7.082;2023-02-23T01:36:33;45.57;;;21.93;;
4148;SDS011;2088;51.032;7.082;2023-02-23T01:39:00;36.73;;;20.90;;
4148;SDS011;2088;51.032;7.082;2023-02-23T01:41:30;42.63;;;23.53;;
4148;SDS011;2088;51.032;7.082;2023-02-23T01:43:57;44.87;;;23.00;;
4148;SDS011;2088;51.032;7.082;2023-02-23T01:46:25;42.03;;;22.30;;
4148;SDS011;2088;51.032;7.082;2023-02-23T01:48:52;44.77;;;25.53;;
4148;SDS011;2088;51.032;7.082;2023-02-23T01:51:20;51.90;;;24.50;;
4148;SDS011;2088;51.032;7.082;2023-02-23T01:53:51;45.93;;;24.30;;
4148;SDS011;2088;51.032;7.082;2023-02-23T01:56:21;41.90;;;22.20;;
4148;SDS011;2088;51.032;7.082;2023-02-23T01:58:51;50.30;;;23.20;;
4148;SDS011;2088;51.032;7.082;2023-02-23T02:01:18;46.43;;;24.63;;
4148;SDS011;2088;51.032;7.082;2023-02-23T02:03:47;44.20;;;23.30;;
4148;SDS011;2088;51.032;7.082;2023-02-23T02:06:16;45.10;;;22.47;;
4148;SDS011;2088;51.032;7.082;2023-02-23T02:08:44;51.00;;;26.17;;
4148;SDS011;2088;51.032;7.082;2023-02-23T02:11:14;43.13;;;23.20;;
4148;SDS011;2088;51.032;7.082;2023-02-23T02:13:55;42.07;;;23.17;;
4148;SDS011;2088;51.032;7.082;2023-02-23T02:16:29;46.07;;;23.87;;
4148;SDS011;2088;51.032;7.082;2023-02-23T02:19:01;43.80;;;23.80;;
4148;SDS011;2088;51.032;7.082;2023-02-23T02:21:40;54.57;;;25.87;;
4148;SDS011;2088;51.032;7.082;2023-02-23T02:24:25;45.43;;;24.13;;
4148;SDS011;2088;51.032;7.082;2023-02-23T02:27:05;50.87;;;24.77;;
4148;SDS011;2088;51.032;7.082;2023-02-23T02:32:26;43.87;;;22.70;;
4148;SDS011;2088;51.032;7.082;2023-02-23T02:37:50;45.80;;;24.03;;
4148;SDS011;2088;51.032;7.082;2023-02-23T02:40:23;50.47;;;24.77;;
4148;SDS011;2088;51.032;7.082;2023-02-23T02:42:58;48.63;;;24.57;;
4148;SDS011;2088;51.032;7.082;2023-02-23T02:45:33;37.67;;;21.27;;
4148;SDS011;2088;51.032;7.082;2023-02-23T02:48:03;49.53;;;26.07;;
4148;SDS011;2088;51.032;7.082;2023-02-23T02:50:35;48.20;;;25.07;;
4148;SDS011;2088;51.032;7.082;2023-02-23T02:53:06;43.23;;;22.67;;
4148;SDS011;2088;51.032;7.082;2023-02-23T02:55:34;51.83;;;25.00;;
4148;SDS011;2088;51.032;7.082;2023-02-23T02:58:03;40.07;;;22.57;;
4148;SDS011;2088;51.032;7.082;2023-02-23T03:00:34;51.90;;;24.67;;
4148;SDS011;2088;51.032;7.082;2023-02-23T03:03:26;47.87;;;26.30;;
4148;SDS011;2088;51.032;7.082;2023-02-23T03:06:11;51.90;;;24.90;;
4148;SDS011;2088;51.032;7.082;2023-02-23T03:08:59;44.47;;;22.93;;
4148;SDS011;2088;51.032;7.082;2023-02-23T03:11:47;51.83;;;24.20;;
4148;SDS011;2088;51.032;7.082;2023-02-23T03:14:37;56.10;;;25.10;;
4148;SDS011;2088;51.032;7.082;2023-02-23T03:17:24;49.80;;;24.67;;
4148;SDS011;2088;51.032;7.082;2023-02-23T03:20:16;44.90;;;23.77;;
4148;SDS011;2088;51.032;7.082;2023-02-23T03:23:05;48.20;;;24.73;;
4148;SDS011;2088;51.032;7.082;2023-02-23T03:25:56;48.33;;;22.97;;
4148;SDS011;2088;51.032;7.082;2023-02-23T03:28:44;57.83;;;23.73;;
4148;SDS011;2088;51.032;7.082;2023-02-23T03:31:33;51.70;;;25.57;;
4148;SDS011;2088;51.032;7.082;2023-02-23T03:34:21;48.37;;;25.00;;
4148;SDS011;2088;51.032;7.082;2023-02-23T03:37:10;42.97;;;22.63;;
4148;SDS011;2088;51.032;7.082;2023-02-23T03:39:58;52.37;;;26.63;;
4148;SDS011;2088;51.032;7.082;2023-02-23T03:42:44;43.93;;;22.97;;
4148;SDS011;2088;51.032;7.082;2023-02-23T03:45:30;46.43;;;24.17;;
4148;SDS011;2088;51.032;7.082;2023-02-23T03:48:15;46.37;;;25.00;;
4148;SDS011;2088;51.032;7.082;2023-02-23T03:51:02;46.07;;;25.03;;
4148;SDS011;2088;51.032;7.082;2023-02-23T03:53:49;60.00;;;24.93;;
4148;SDS011;2088;51.032;7.082;2023-02-23T03:56:36;44.63;;;23.90;;
4148;SDS011;2088;51.032;7.082;2023-02-23T03:59:24;53.00;;;24.80;;
4148;SDS011;2088;51.032;7.082;2023-02-23T04:02:10;44.63;;;23.97;;
4148;SDS011;2088;51.032;7.082;2023-02-23T04:04:56;45.53;;;23.30;;
4148;SDS011;2088;51.032;7.082;2023-02-23T04:07:43;52.60;;;25.80;;
4148;SDS011;2088;51.032;7.082;2023-02-23T04:10:29;66.87;;;26.70;;
4148;SDS011;2088;51.032;7.082;2023-02-23T04:13:16;53.40;;;27.93;;
4148;SDS011;2088;51.032;7.082;2023-02-23T04:15:46;50.03;;;26.47;;
4148;SDS011;2088;51.032;7.082;2023-02-23T04:18:14;53.53;;;25.47;;
4148;SDS011;2088;51.032;7.082;2023-02-23T04:20:42;59.00;;;27.20;;
4148;SDS011;2088;51.032;7.082;2023-02-23T04:23:09;53.80;;;26.93;;
4148;SDS011;2088;51.032;7.082;2023-02-23T04:25:36;49.03;;;25.73;;
4148;SDS011;2088;51.032;7.082;2023-02-23T04:28:03;54.83;;;28.77;;
4148;SDS011;2088;51.032;7.082;2023-02-23T04:30:30;56.40;;;29.40;;
4148;SDS011;2088;51.032;7.082;2023-02-23T04:32:59;49.13;;;26.47;;
4148;SDS011;2088;51.032;7.082;2023-02-23T04:35:26;49.23;;;27.43;;
4148;SDS011;2088;51.032;7.082;2023-02-23T04:37:55;54.37;;;26.87;;
4148;SDS011;2088;51.032;7.082;2023-02-23T04:40:22;51.97;;;26.87;;
4148;SDS011;2088;51.032;7.082;2023-02-23T04:42:49;54.80;;;28.33;;
4148;SDS011;2088;51.032;7.082;2023-02-23T04:45:16;51.90;;;26.50;;
4148;SDS011;2088;51.032;7.082;2023-02-23T04:47:43;59.20;;;29.50;;
4148;SDS011;2088;51.032;7.082;2023-02-23T04:50:12;60.93;;;27.00;;
4148;SDS011;2088;51.032;7.082;2023-02-23T04:52:39;52.77;;;26.37;;
4148;SDS011;2088;51.032;7.082;2023-02-23T04:55:07;50.63;;;27.83;;
4148;SDS011;2088;51.032;7.082;2023-02-23T04:57:34;54.67;;;25.73;;
4148;SDS011;2088;51.032;7.082;2023-02-23T05:00:02;49.70;;;25.37;;
4148;SDS011;2088;51.032;7.082;2023-02-23T05:02:29;49.57;;;25.77;;
4148;SDS011;2088;51.032;7.082;2023-02-23T05:04:57;49.10;;;24.93;;
4148;SDS011;2088;51.032;7.082;2023-02-23T05:07:25;43.67;;;23.53;;
4148;SDS011;2088;51.032;7.082;2023-02-23T05:09:52;46.07;;;25.07;;
4148;SDS011;2088;51.032;7.082;2023-02-23T05:12:19;52.23;;;25.60;;
4148;SDS011;2088;51.032;7.082;2023-02-23T05:14:46;51.80;;;25.27;;
4148;SDS011;2088;51.032;7.082;2023-02-23T05:17:13;49.97;;;25.97;;
4148;SDS011;2088;51.032;7.082;2023-02-23T05:19:40;42.40;;;24.57;;
4148;SDS011;2088;51.032;7.082;2023-02-23T05:22:07;48.60;;;24.70;;
4148;SDS011;2088;51.032;7.082;2023-02-23T05:24:38;41.80;;;23.70;;
4148;SDS011;2088;51.032;7.082;2023-02-23T05:27:05;42.70;;;23.17;;
4148;SDS011;2088;51.032;7.082;2023-02-23T05:29:32;38.50;;;22.80;;
4148;SDS011;2088;51.032;7.082;2023-02-23T05:31:59;44.60;;;24.67;;
4148;SDS011;2088;51.032;7.082;2023-02-23T05:34:26;48.37;;;24.63;;
4148;SDS011;2088;51.032;7.082;2023-02-23T05:36:53;54.37;;;26.87;;
4148;SDS011;2088;51.032;7.082;2023-02-23T05:39:20;43.50;;;24.67;;
4148;SDS011;2088;51.032;7.082;2023-02-23T05:41:48;51.83;;;26.43;;
4148;SDS011;2088;51.032;7.082;2023-02-23T05:44:16;55.43;;;27.47;;
4148;SDS011;2088;51.032;7.082;2023-02-23T05:46:44;55.67;;;26.90;;
4148;SDS011;2088;51.032;7.082;2023-02-23T05:49:11;48.47;;;24.90;;
4148;SDS011;2088;51.032;7.082;2023-02-23T05:51:38;54.33;;;27.07;;
4148;SDS011;2088;51.032;7.082;2023-02-23T05:54:05;62.20;;;29.30;;
4148;SDS011;2088;51.032;7.082;2023-02-23T05:56:32;64.07;;;31.97;;
4148;SDS011;2088;51.032;7.082;2023-02-23T05:59:01;74.90;;;29.70;;
4148;SDS011;2088;51.032;7.082;2023-02-23T06:01:29;64.77;;;29.50;;
4148;SDS011;2088;51.032;7.082;2023-02-23T06:03:56;85.53;;;33.40;;
4148;SDS011;2088;51.032;7.082;2023-02-23T06:06:23;81.93;;;33.20;;
4148;SDS011;2088;51.032;7.082;2023-02-23T06:08:52;67.27;;;32.00;;
4148;SDS011;2088;51.032;7.082;2023-02-23T06:11:19;75.10;;;31.83;;
4148;SDS011;2088;51.032;7.082;2023-02-23T06:13:46;72.00;;;30.93;;
4148;SDS011;2088;51.032;7.082;2023-02-23T06:16:15;75.03;;;31.33;;
4148;SDS011;2088;51.032;7.082;2023-02-23T06:18:42;73.97;;;32.70;;
4148;SDS011;2088;51.032;7.082;2023-02-23T06:21:09;93.93;;;35.90;;
4148;SDS011;2088;51.032;7.082;2023-02-23T06:23:36;82.67;;;33.63;;
4148;SDS011;2088;51.032;7.082;2023-02-23T06:26:03;78.70;;;33.80;;
4148;SDS011;2088;51.032;7.082;2023-02-23T06:28:30;86.40;;;37.20;;
4148;SDS011;2088;51.032;7.082;2023-02-23T06:30:57;92.13;;;34.70;;
4148;SDS011;2088;51.032;7.082;2023-02-23T06:33:26;83.83;;;34.90;;
4148;SDS011;2088;51.032;7.082;2023-02-23T06:35:53;85.63;;;33.80;;
4148;SDS011;2088;51.032;7.082;2023-02-23T06:38:20;81.67;;;37.20;;
4148;SDS011;2088;51.032;7.082;2023-02-23T06:40:48;75.77;;;33.63;;
4148;SDS011;2088;51.032;7.082;2023-02-23T06:43:15;75.40;;;32.57;;
4148;SDS011;2088;51.032;7.082;2023-02-23T06:45:42;80.37;;;34.40;;
4148;SDS011;2088;51.032;7.082;2023-02-23T06:48:09;91.20;;;32.57;;
4148;SDS011;2088;51.032;7.082;2023-02-23T06:50:37;85.57;;;32.53;;
4148;SDS011;2088;51.032;7.082;2023-02-23T06:53:04;79.60;;;34.43;;
4148;SDS011;2088;51.032;7.082;2023-02-23T06:55:32;92.10;;;35.57;;
4148;SDS011;2088;51.032;7.082;2023-02-23T06:57:59;78.17;;;33.50;;
4148;SDS011;2088;51.032;7.082;2023-02-23T07:00:27;83.30;;;35.73;;
4148;SDS011;2088;51.032;7.082;2023-02-23T07:02:55;80.80;;;34.07;;
4148;SDS011;2088;51.032;7.082;2023-02-23T07:05:23;88.03;;;35.17;;
4148;SDS011;2088;51.032;7.082;2023-02-23T07:07:52;83.00;;;31.70;;
4148;SDS011;2088;51.032;7.082;2023-02-23T07:10:19;88.20;;;36.60;;
4148;SDS011;2088;51.032;7.082;2023-02-23T07:12:46;88.03;;;33.40;;
4148;SDS011;2088;51.032;7.082;2023-02-23T07:15:13;80.70;;;33.73;;
4148;SDS011;2088;51.032;7.082;2023-02-23T07:17:41;84.40;;;33.30;;
4148;SDS011;2088;51.032;7.082;2023-02-23T07:20:10;98.17;;;40.83;;
4148;SDS011;2088;51.032;7.082;2023-02-23T07:22:37;99.20;;;38.10;;
4148;SDS011;2088;51.032;7.082;2023-02-23T07:25:06;97.53;;;37.30;;
4148;SDS011;2088;51.032;7.082;2023-02-23T07:27:34;93.73;;;34.80;;
4148;SDS011;2088;51.032;7.082;2023-02-23T07:30:01;89.80;;;32.90;;
4148;SDS011;2088;51.032;7.082;2023-02-23T07:32:28;88.83;;;32.77;;
4148;SDS011;2088;51.032;7.082;2023-02-23T07:34:55;83.43;;;34.10;;
4148;SDS011;2088;51.032;7.082;2023-02-23T07:37:22;86.13;;;33.67;;
4148;SDS011;2088;51.032;7.082;2023-02-23T07:39:49;81.97;;;31.73;;
4148;SDS011;2088;51.032;7.082;2023-02-23T07:42:18;96.23;;;38.23;;
4148;SDS011;2088;51.032;7.082;2023-02-23T07:44:45;80.77;;;34.47;;
4148;SDS011;2088;51.032;7.082;2023-02-23T07:47:12;78.70;;;33.77;;
4148;SDS011;2088;51.032;7.082;2023-02-23T07:49:39;84.50;;;34.37;;
4148;SDS011;2088;51.032;7.082;2023-02-23T07:52:06;83.43;;;33.70;;
4148;SDS011;2088;51.032;7.082;2023-02-23T07:54:33;81.00;;;30.90;;
4148;SDS011;2088;51.032;7.082;2023-02-23T07:57:00;69.07;;;28.43;;
4148;SDS011;2088;51.032;7.082;2023-02-23T07:59:29;57.23;;;29.23;;
4148;SDS011;2088;51.032;7.082;2023-02-23T08:01:56;67.50;;;30.00;;
4148;SDS011;2088;51.032;7.082;2023-02-23T08:04:23;67.60;;;29.70;;
4148;SDS011;2088;51.032;7.082;2023-02-23T08:06:50;65.33;;;29.53;;
4148;SDS011;2088;51.032;7.082;2023-02-23T08:09:17;68.77;;;31.00;;
4148;SDS011;2088;51.032;7.082;2023-02-23T08:11:44;60.07;;;25.83;;
4148;SDS011;2088;51.032;7.082;2023-02-23T08:14:11;78.90;;;29.23;;
4148;SDS011;2088;51.032;7.082;2023-02-23T08:16:40;61.30;;;27.97;;
4148;SDS011;2088;51.032;7.082;2023-02-23T08:19:08;63.37;;;28.40;;
4148;SDS011;2088;51.032;7.082;2023-02-23T08:21:35;66.43;;;29.63;;
4148;SDS011;2088;51.032;7.082;2023-02-23T08:24:02;76.33;;;29.30;;
4148;SDS011;2088;51.032;7.082;2023-02-23T08:26:29;67.97;;;30.33;;
4148;SDS011;2088;51.032;7.082;2023-02-23T08:28:56;59.37;;;26.87;;
4148;SDS011;2088;51.032;7.082;2023-02-23T08:31:23;65.60;;;28.50;;
4148;SDS011;2088;51.032;7.082;2023-02-23T08:33:52;62.13;;;26.67;;
4148;SDS011;2088;51.032;7.082;2023-02-23T08:36:19;69.27;;;28.07;;
4148;SDS011;2088;51.032;7.082;2023-02-23T08:38:47;66.50;;;27.43;;
4148;SDS011;2088;51.032;7.082;2023-02-23T08:41:14;59.43;;;27.30;;
4148;SDS011;2088;51.032;7.082;2023-02-23T08:43:41;62.67;;;25.70;;
4148;SDS011;2088;51.032;7.082;2023-02-23T08:46:08;61.60;;;27.33;;
4148;SDS011;2088;51.032;7.082;2023-02-23T08:48:35;61.77;;;26.37;;
4148;SDS011;2088;51.032;7.082;2023-02-23T08:51:05;65.10;;;25.93;;
4148;SDS011;2088;51.032;7.082;2023-02-23T08:53:33;56.30;;;25.37;;
4148;SDS011;2088;51.032;7.082;2023-02-23T08:56:00;57.07;;;27.60;;
4148;SDS011;2088;51.032;7.082;2023-02-23T08:58:28;61.67;;;27.90;;
4148;SDS011;2088;51.032;7.082;2023-02-23T09:00:55;56.00;;;25.83;;
4148;SDS011;2088;51.032;7.082;2023-02-23T09:03:23;49.50;;;25.07;;
4148;SDS011;2088;51.032;7.082;2023-02-23T09:05:52;63.57;;;24.67;;
4148;SDS011;2088;51.032;7.082;2023-02-23T09:08:21;69.30;;;27.90;;
4148;SDS011;2088;51.032;7.082;2023-02-23T09:10:48;53.00;;;25.20;;
4148;SDS011;2088;51.032;7.082;2023-02-23T09:13:15;57.30;;;24.67;;
4148;SDS011;2088;51.032;7.082;2023-02-23T09:15:42;49.67;;;23.80;;
4148;SDS011;2088;51.032;7.082;2023-02-23T09:18:10;50.17;;;24.27;;
4148;SDS011;2088;51.032;7.082;2023-02-23T09:20:39;60.77;;;25.97;;
4148;SDS011;2088;51.032;7.082;2023-02-23T09:23:06;50.83;;;23.80;;
4148;SDS011;2088;51.032;7.082;2023-02-23T09:25:37;50.43;;;23.30;;
4148;SDS011;2088;51.032;7.082;2023-02-23T09:28:08;45.20;;;23.40;;
4148;SDS011;2088;51.032;7.082;2023-02-23T09:30:36;41.60;;;21.97;;
4148;SDS011;2088;51.032;7.082;2023-02-23T09:33:03;53.80;;;25.37;;
4148;SDS011;2088;51.032;7.082;2023-02-23T09:35:31;48.17;;;23.80;;
4148;SDS011;2088;51.032;7.082;2023-02-23T09:38:00;51.50;;;23.23;;
4148;SDS011;2088;51.032;7.082;2023-02-23T09:40:28;47.37;;;24.10;;
4148;SDS011;2088;51.032;7.082;2023-02-23T09:42:58;47.03;;;23.43;;
4148;SDS011;2088;51.032;7.082;2023-02-23T09:45:28;52.00;;;22.17;;
4148;SDS011;2088;51.032;7.082;2023-02-23T09:48:01;40.60;;;21.37;;
4148;SDS011;2088;51.032;7.082;2023-02-23T09:50:32;50.03;;;22.87;;
4148;SDS011;2088;51.032;7.082;2023-02-23T09:53:01;44.70;;;20.70;;
4148;SDS011;2088;51.032;7.082;2023-02-23T09:55:29;42.77;;;21.23;;
4148;SDS011;2088;51.032;7.082;2023-02-23T09:58:01;39.40;;;20.17;;
4148;SDS011;2088;51.032;7.082;2023-02-23T10:00:28;45.80;;;21.47;;
4148;SDS011;2088;51.032;7.082;2023-02-23T10:03:08;39.50;;;19.40;;
4148;SDS011;2088;51.032;7.082;2023-02-23T10:05:39;37.83;;;19.70;;
4148;SDS011;2088;51.032;7.082;2023-02-23T10:08:11;33.10;;;17.07;;
4148;SDS011;2088;51.032;7.082;2023-02-23T10:10:42;41.47;;;20.63;;
4148;SDS011;2088;51.032;7.082;2023-02-23T10:13:14;34.27;;;18.73;;
4148;SDS011;2088;51.032;7.082;2023-02-23T10:15:46;48.13;;;19.70;;
4148;SDS011;2088;51.032;7.082;2023-02-23T10:18:18;29.50;;;16.90;;
4148;SDS011;2088;51.032;7.082;2023-02-23T10:20:49;41.40;;;19.60;;
4148;SDS011;2088;51.032;7.082;2023-02-23T10:23:17;40.67;;;19.77;;
4148;SDS011;2088;51.032;7.082;2023-02-23T10:25:48;36.77;;;18.33;;
4148;SDS011;2088;51.032;7.082;2023-02-23T10:28:18;38.30;;;19.40;;
4148;SDS011;2088;51.032;7.082;2023-02-23T10:30:46;39.60;;;18.87;;
4148;SDS011;2088;51.032;7.082;2023-02-23T10:33:14;42.20;;;20.43;;
4148;SDS011;2088;51.032;7.082;2023-02-23T10:35:41;38.70;;;19.70;;
4148;SDS011;2088;51.032;7.082;2023-02-23T10:38:11;43.17;;;20.90;;
4148;SDS011;2088;51.032;7.082;2023-02-23T10:40:39;40.83;;;20.60;;
4148;SDS011;2088;51.032;7.082;2023-02-23T10:43:08;44.80;;;19.67;;
4148;SDS011;2088;51.032;7.082;2023-02-23T10:45:40;38.50;;;20.40;;
4148;SDS011;2088;51.032;7.082;2023-02-23T10:48:12;40.03;;;21.20;;
4148;SDS011;2088;51.032;7.082;2023-02-23T10:50:40;45.77;;;19.60;;
4148;SDS011;2088;51.032;7.082;2023-02-23T10:53:10;44.43;;;22.40;;
4148;SDS011;2088;51.032;7.082;2023-02-23T10:55:40;50.23;;;24.27;;
4148;SDS011;2088;51.032;7.082;2023-02-23T10:58:08;41.13;;;20.17;;
4148;SDS011;2088;51.032;7.082;2023-02-23T11:00:42;42.57;;;23.47;;
4148;SDS011;2088;51.032;7.082;2023-02-23T11:03:16;43.20;;;21.60;;
4148;SDS011;2088;51.032;7.082;2023-02-23T11:05:44;45.53;;;20.57;;
4148;SDS011;2088;51.032;7.082;2023-02-23T11:11:03;44.23;;;19.50;;
4148;SDS011;2088;51.032;7.082;2023-02-23T11:13:33;45.97;;;21.70;;
4148;SDS011;2088;51.032;7.082;2023-02-23T11:16:02;37.90;;;18.23;;
4148;SDS011;2088;51.032;7.082;2023-02-23T11:18:31;45.23;;;21.00;;
4148;SDS011;2088;51.032;7.082;2023-02-23T11:20:58;43.07;;;20.60;;
4148;SDS011;2088;51.032;7.082;2023-02-23T11:23:26;43.47;;;20.23;;
4148;SDS011;2088;51.032;7.082;2023-02-23T11:25:55;40.43;;;21.07;;
4148;SDS011;2088;51.032;7.082;2023-02-23T11:28:26;43.20;;;21.57;;
4148;SDS011;2088;51.032;7.082;2023-02-23T11:30:55;48.77;;;21.50;;
4148;SDS011;2088;51.032;7.082;2023-02-23T11:33:24;55.33;;;23.30;;
4148;SDS011;2088;51.032;7.082;2023-02-23T11:35:56;47.37;;;19.37;;
4148;SDS011;2088;51.032;7.082;2023-02-23T11:38:26;61.07;;;24.13;;
4148;SDS011;2088;51.032;7.082;2023-02-23T11:40:57;37.70;;;20.20;;
4148;SDS011;2088;51.032;7.082;2023-02-23T11:43:24;47.50;;;23.40;;
4148;SDS011;2088;51.032;7.082;2023-02-23T11:45:52;44.20;;;20.67;;
4148;SDS011;2088;51.032;7.082;2023-02-23T11:48:21;36.97;;;18.90;;
4148;SDS011;2088;51.032;7.082;2023-02-23T11:50:53;41.73;;;20.40;;
4148;SDS011;2088;51.032;7.082;2023-02-23T11:53:23;44.30;;;20.07;;
4148;SDS011;2088;51.032;7.082;2023-02-23T11:55:52;50.57;;;20.43;;
4148;SDS011;2088;51.032;7.082;2023-02-23T11:58:22;45.93;;;20.90;;
4148;SDS011;2088;51.032;7.082;2023-02-23T12:00:56;46.73;;;19.67;;
4148;SDS011;2088;51.032;7.082;2023-02-23T12:03:23;48.07;;;21.00;;
4148;SDS011;2088;51.032;7.082;2023-02-23T12:05:53;51.80;;;23.23;;
4148;SDS011;2088;51.032;7.082;2023-02-23T12:08:25;52.33;;;21.87;;
4148;SDS011;2088;51.032;7.082;2023-02-23T12:10:56;58.77;;;22.50;;
4148;SDS011;2088;51.032;7.082;2023-02-23T12:13:26;58.87;;;22.80;;
4148;SDS011;2088;51.032;7.082;2023-02-23T12:15:57;62.13;;;26.20;;
4148;SDS011;2088;51.032;7.082;2023-02-23T12:18:30;61.60;;;24.20;;
4148;SDS011;2088;51.032;7.082;2023-02-23T12:21:02;60.27;;;22.07;;
4148;SDS011;2088;51.032;7.082;2023-02-23T12:23:30;75.70;;;24.67;;
4148;SDS011;2088;51.032;7.082;2023-02-23T12:26:02;68.90;;;23.00;;
4148;SDS011;2088;51.032;7.082;2023-02-23T12:28:30;62.87;;;24.60;;
4148;SDS011;2088;51.032;7.082;2023-02-23T12:31:00;65.43;;;24.60;;
4148;SDS011;2088;51.032;7.082;2023-02-23T12:33:30;53.83;;;21.27;;
4148;SDS011;2088;51.032;7.082;2023-02-23T12:36:02;53.30;;;20.50;;
4148;SDS011;2088;51.032;7.082;2023-02-23T12:38:43;59.33;;;22.70;;
4148;SDS011;2088;51.032;7.082;2023-02-23T12:41:13;63.17;;;21.57;;
4148;SDS011;2088;51.032;7.082;2023-02-23T12:43:43;70.43;;;22.97;;
4148;SDS011;2088;51.032;7.082;2023-02-23T12:46:13;60.13;;;21.47;;
4148;SDS011;2088;51.032;7.082;2023-02-23T12:48:46;55.40;;;20.10;;
4148;SDS011;2088;51.032;7.082;2023-02-23T12:51:18;69.97;;;22.77;;
4148;SDS011;2088;51.032;7.082;2023-02-23T12:53:47;60.17;;;19.77;;
4148;SDS011;2088;51.032;7.082;2023-02-23T12:56:23;54.63;;;18.70;;
4148;SDS011;2088;51.032;7.082;2023-02-23T12:58:54;59.20;;;19.77;;
4148;SDS011;2088;51.032;7.082;2023-02-23T13:01:25;43.77;;;18.47;;
4148;SDS011;2088;51.032;7.082;2023-02-23T13:03:56;52.40;;;19.63;;
4148;SDS011;2088;51.032;7.082;2023-02-23T13:06:30;45.97;;;17.27;;
4148;SDS011;2088;51.032;7.082;2023-02-23T13:09:10;50.30;;;21.67;;
4148;SDS011;2088;51.032;7.082;2023-02-23T13:11:45;47.07;;;16.77;;
4148;SDS011;2088;51.032;7.082;2023-02-23T13:14:15;38.40;;;15.77;;
4148;SDS011;2088;51.032;7.082;2023-02-23T13:16:46;42.50;;;16.57;;
4148;SDS011;2088;51.032;7.082;2023-02-23T13:19:16;42.60;;;15.80;;
4148;SDS011;2088;51.032;7.082;2023-02-23T13:21:48;44.90;;;17.63;;
4148;SDS011;2088;51.032;7.082;2023-02-23T13:24:19;51.67;;;18.30;;
4148;SDS011;2088;51.032;7.082;2023-02-23T13:26:48;40.80;;;15.70;;
4148;SDS011;2088;51.032;7.082;2023-02-23T13:29:23;37.67;;;16.27;;
4148;SDS011;2088;51.032;7.082;2023-02-23T13:31:51;39.60;;;15.23;;
4148;SDS011;2088;51.032;7.082;2023-02-23T13:34:20;40.57;;;16.03;;
4148;SDS011;2088;51.032;7.082;2023-02-23T13:36:51;40.93;;;16.60;;
4148;SDS011;2088;51.032;7.082;2023-02-23T13:39:38;44.10;;;17.97;;
4148;SDS011;2088;51.032;7.082;2023-02-23T13:42:12;43.07;;;15.50;;
4148;SDS011;2088;51.032;7.082;2023-02-23T13:44:41;44.23;;;14.57;;
4148;SDS011;2088;51.032;7.082;2023-02-23T13:47:15;47.03;;;12.57;;
4148;SDS011;2088;51.032;7.082;2023-02-23T13:49:45;32.80;;;13.30;;
4148;SDS011;2088;51.032;7.082;2023-02-23T13:52:19;33.53;;;13.40;;
4148;SDS011;2088;51.032;7.082;2023-02-23T13:54:51;29.37;;;13.17;;
4148;SDS011;2088;51.032;7.082;2023-02-23T13:57:20;26.40;;;12.03;;
4148;SDS011;2088;51.032;7.082;2023-02-23T13:59:47;36.97;;;13.73;;
4148;SDS011;2088;51.032;7.082;2023-02-23T14:05:00;42.67;;;14.80;;
4148;SDS011;2088;51.032;7.082;2023-02-23T14:07:30;41.00;;;14.20;;
4148;SDS011;2088;51.032;7.082;2023-02-23T14:09:58;40.57;;;15.03;;
4148;SDS011;2088;51.032;7.082;2023-02-23T14:12:32;48.80;;;16.97;;
4148;SDS011;2088;51.032;7.082;2023-02-23T14:17:41;37.17;;;14.80;;
4148;SDS011;2088;51.032;7.082;2023-02-23T14:20:23;34.23;;;14.57;;
4148;SDS011;2088;51.032;7.082;2023-02-23T14:23:11;36.90;;;14.80;;
4148;SDS011;2088;51.032;7.082;2023-02-23T14:25:46;41.27;;;16.40;;
4148;SDS011;2088;51.032;7.082;2023-02-23T14:28:24;38.13;;;16.00;;
4148;SDS011;2088;51.032;7.082;2023-02-23T14:30:58;32.80;;;13.33;;
4148;SDS011;2088;51.032;7.082;2023-02-23T14:33:32;36.07;;;15.13;;
4148;SDS011;2088;51.032;7.082;2023-02-23T14:36:00;37.23;;;15.80;;
4148;SDS011;2088;51.032;7.082;2023-02-23T14:38:32;35.77;;;14.80;;
4148;SDS011;2088;51.032;7.082;2023-02-23T14:41:01;31.70;;;12.80;;
4148;SDS011;2088;51.032;7.082;2023-02-23T14:46:16;38.17;;;18.00;;
4148;SDS011;2088;51.032;7.082;2023-02-23T14:48:44;35.23;;;14.40;;
4148;SDS011;2088;51.032;7.082;2023-02-23T14:51:23;60.07;;;15.77;;
4148;SDS011;2088;51.032;7.082;2023-02-23T14:53:52;39.93;;;14.50;;
4148;SDS011;2088;51.032;7.082;2023-02-23T14:56:23;43.23;;;15.60;;
4148;SDS011;2088;51.032;7.082;2023-02-23T14:58:51;43.50;;;16.33;;
4148;SDS011;2088;51.032;7.082;2023-02-23T15:01:31;35.13;;;14.63;;
4148;SDS011;2088;51.032;7.082;2023-02-23T15:04:09;38.17;;;16.03;;
4148;SDS011;2088;51.032;7.082;2023-02-23T15:06:37;35.53;;;14.93;;
4148;SDS011;2088;51.032;7.082;2023-02-23T15:09:06;39.07;;;15.30;;
4148;SDS011;2088;51.032;7.082;2023-02-23T15:11:34;34.77;;;15.47;;
4148;SDS011;2088;51.032;7.082;2023-02-23T15:14:02;35.33;;;14.37;;
4148;SDS011;2088;51.032;7.082;2023-02-23T15:16:29;36.70;;;14.93;;
4148;SDS011;2088;51.032;7.082;2023-02-23T15:18:59;35.77;;;14.30;;
4148;SDS011;2088;51.032;7.082;2023-02-23T15:21:26;39.53;;;14.77;;
4148;SDS011;2088;51.032;7.082;2023-02-23T15:23:57;28.10;;;13.63;;